AirNav   Air Wisconsin pilot careers
 
 1500 users online  

S72 St Maries Municipal Airport
St Maries, Idaho, USA


FAA INFORMATION EFFECTIVE 04 JANUARY 2018

Location

FAA Identifier: S72
Lat/Long: 47-19-32.9200N / 116-34-36.0400W
47-19.548667N / 116-34.600667W
47.3258111 / -116.5766778
(estimated)
Elevation: 2131.3 ft. / 649.6 m (surveyed)
Variation: 15E (2010)
From city: 1 mile NW of ST MARIES, ID
Time zone: UTC -8 (UTC -7 during Daylight Saving Time)
Zip code: 83861

Airport Operations

Airport use: Open to the public
Activation date: 04/1940
Control tower: no
ARTCC: SEATTLE CENTER
FSS: BOISE FLIGHT SERVICE STATION
NOTAMs facility: BOI (NOTAM-D service available)
Attendance: UNATNDD
Wind indicator: lighted
Segmented circle: yes
Lights: ACTVT NSTD MIRL RY 10/28, PAPI RY 10 AND REIL RY 10 - CTAF.
Beacon: white-green (lighted land airport)
Operates sunset to sunrise.

Airport Communications

CTAF/UNICOM: 122.8

Nearby radio navigation aids

VOR radial/distance  VOR name  Freq  Var
COEr141/28.6COEUR D'ALENE VOR/DME108.8019E
MLPr243/38.6MULLAN PASS VOR/DME117.8015E

Airport Services

Fuel available: 100LL
Parking: tiedowns
Airframe service: MINOR
Powerplant service: MINOR
Bottled oxygen: NONE
Bulk oxygen: NONE

Runway Information

Runway 10/28

Dimensions: 3354 x 60 ft. / 1022 x 18 m
Surface: asphalt, in good condition
Weight bearing capacity: 
Single wheel: 12.5
Runway edge lights: non-standard
NSTD MIRL FIRST 715 FT WEST END NOT LIGHTED.
Runway edge markings: NSTD DSPLCD THLD MARKING YELLOW CHEVRONS.
RUNWAY 10  RUNWAY 28
Latitude: 47-19.666000N47-19.431333N
Longitude: 116-34.967833W116-34.233500W
Elevation: 2131.3 ft.2126.3 ft.
Gradient: 0.1%0.1%
Traffic pattern: rightleft
Markings: basic, in good conditionbasic, in good condition
Visual slope indicator: 2-light PAPI on left (4.00 degrees glide path)
Runway end identifier lights: yes
Touchdown point: yes, no lightsyes, no lights
Obstructions: 45 ft. road, 600 ft. from runway, 165 ft. right of centerline, 8:1 slope to clear
DSPLCD FOR 45' ROAD AT 0';30 FT R; 23:1 FM DSPLCD THLD.
45 ft. trees, 1700 ft. from runway, 33:1 slope to clear
ADDNL OBSTNS +50' PLINE AT 2000', ON CNTRLN +4' FENCE AT 275' ON CNTRLN, +1000' RIDGE AT 1 1/2 MILES, ON CNTRLN.

Airport Ownership and Management from official FAA records

Ownership: Publicly-owned
Owner: BENEWAH COUNTY
BENEWAH COUNTY COURTHOUSE
ST MARIES, ID 83861
Phone 208-245-2234
Manager: DALE PRITCHARD
P O BOX 264
ST MARIES, ID 83861
Phone 208-582-0941

Airport Operational Statistics

Aircraft based on the field: 27
Single engine airplanes: 24
Multi engine airplanes: 3
    
Aircraft operations: avg 36/day *
64% transient general aviation
36% local general aviation
* for 12-month period ending 19 August 2016

Additional Remarks

RY 28 HAS 200 FT STOPWAY.

Instrument Procedures

There are no published instrument procedures at S72.

Some nearby airports with instrument procedures:

KCOE - Coeur d'Alene Airport - Pappy Boyington Field (29 nm N)
KSFF - Felts Field Airport (37 nm NW)
KPUW - Pullman/Moscow Regional Airport (41 nm SW)
KGEG - Spokane International Airport (43 nm NW)
KSKA - Fairchild Air Force Base (47 nm W)
 
Loc | Ops | Rwys | IFR | FBO | Links
Com | Nav | Svcs | Stats | Notes


 
Area around S72 (St Maries Municipal Airport)
 
Road maps at: MapQuest Bing Google
 
Aerial photo
WARNING: Photo may not be current or correct
Aerial photo of S72 (St Maries Municipal Airport)
Photo by Colin FitzGerald
Photo taken 26-Nov-2011
looking east.

Do you have a better or more recent aerial photo of St Maries Municipal Airport that you would like to share? If so, please send us your photo.

 
Sectional chart

 
Airport distance calculator
Flying to St Maries Municipal Airport? Find the distance to fly.

From to S72

Sunrise and sunset
Times for 22-Jan-2018
 Local
(UTC-8)
 Zulu
(UTC)
Morning civil twilight06:5014:50
Sunrise07:2415:24
Sunset16:3200:32
Evening civil twilight17:0601:06

Current date and time
Zulu (UTC)  22-Jan-2018 18:51:11
Local (UTC-8)  22-Jan-2018 10:51:11
 
METAR
KCOE 
28nm N 
221756Z AUTO 20005KT 10SM BKN017 OVC026 03/03 A3015 RMK AO2 SLP246 T00330028 10033 21033 51015
KSFF 
37nm NW 
221753Z 20011KT 10SM BKN012 03/00 A3017 RMK AO2 SLP228 T00280000 10028 20000 51020
KMLP 
38nm E 
221829Z AUTO 23009G16KT 190V260 10SM UP BKN006 OVC009 M05/M06 A3003 RMK AO2 UPB1758E05B28SNE1757B05E08 P0000 T10501061 TSNO
KPUW 
41nm SW 
221753Z AUTO 20007KT 10SM SCT037 04/01 A3019 RMK AO2 SLP240 T00390006 10039 20000 53018
KGEG 
43nm NW 
221753Z 20013G18KT 10SM BKN007 BKN180 01/00 A3014 RMK AO2 SLP225 T00060000 10006 21006 53018 $
KSKA 
47nm W 
221830Z 20009KT 10SM OVC006 00/00 A3014 RMK AO2A SLP230 $
TAF
KCOE 
28nm N 
221739Z 2218/2318 18005KT P6SM BKN017 OVC040 FM222000 20008KT 5SM -SHRASN BKN015 OVC035 FM222300 22010KT P6SM BKN022 BKN070 FM230200 VRB03KT P6SM SCT020 BKN050 FM230900 10003KT P6SM OVC015
NOTAMs
Click for the latest NOTAMs
NOTAMs are issued by the DoD/FAA and will open in a separate window not controlled by AirNav.

 

 
 

FBO, Fuel Providers, and Aircraft Ground Support

  
 Business Name 
 
 Contact 
 
 Services / Description 
 
Fuel Prices
 
Comments
  
St Maries Municipal Airport 208-582-0941
no information available

If you are affiliated with St Maries Municipal Airport and would like to show here your services, contact info, web link, logo, and more, click here
100LL
SS $4.55 
 Updated 10-Jul-2017
 
   write
SS=Self service
Update Fuel Prices
 

Would you like to see your business listed on this page?

 If your business provides an interesting product or service to pilots, flight crews, aircraft, or users of the St Maries Municipal Airport, you should consider listing it here.  To start the listing process, click on the button below
 
Add a business
 

Other Pages about St Maries Municipal Airport

Update a link
 
Copyright © AirNav, LLC. All rights reserved. Privacy Policy  Contact